Tres Hombres — 9LD2206 — position and weather

sailwx.info

Track history (hours):
 
Tides and Currents Weather Stations Pressure Air Temp Water Temp Dewpoint Dewpoint Depression Visibility Wind Speed Wind Dir Waves Ship Positions

Tres Hombres

Ship's website: http://www.zeilendehandelsvaart.nl/

Last reported at 2014-Sep-10 13:48 UTC. Time now 2014-Sep-18 11:47 UTC.
Position N 52°57' E 004°46'.

Length 32 m.

Type: Sailing vessel. MMSI: 667905000.

Date/timePositionNaut miles runAvg speedWind from/ knotsBaromVisibWave heightAir tempDewpointWater temp
2014-Sep-10 13:48N 52°57' E 004°46'3 0.7
2014-Sep-10 10:00N 52°58' E 004°50'11 0.8
2014-Sep-09 20:56N 52°53' E 004°34'16 3.7
2014-Sep-09 16:33N 52°47' E 004°09'86 3.9
2014-Sep-08 18:25N 52°31' E 001°50'3 3.4
2014-Sep-08 17:33N 52°33' E 001°47'2 2.5
2014-Sep-08 16:33N 52°35' E 001°44'1 1.5
2014-Sep-08 15:33N 52°36' E 001°44'0 0.0
2014-Sep-08 14:33N 52°36' E 001°44'0 0.0
2014-Sep-08 13:33N 52°36' E 001°44'0 0.0
2014-Sep-08 12:33N 52°36' E 001°44'0 0.0
2014-Sep-08 11:33N 52°36' E 001°44'0 0.0
2014-Sep-08 10:33N 52°36' E 001°44'0 0.0
2014-Sep-08 09:33N 52°36' E 001°44'0 0.0
2014-Sep-08 08:33N 52°36' E 001°44'0 0.0
2014-Sep-08 07:33N 52°36' E 001°44'0 0.0
2014-Sep-08 06:33N 52°36' E 001°44'0 0.0
2014-Sep-08 05:33N 52°36' E 001°44'0 0.0
2014-Sep-08 04:33N 52°36' E 001°44'0 0.0
2014-Sep-08 03:33N 52°36' E 001°44'0 0.0
2014-Sep-08 02:33N 52°36' E 001°44'0 0.0
2014-Sep-08 01:33N 52°36' E 001°44'0 0.0
2014-Sep-08 00:33N 52°36' E 001°44'0 0.0
2014-Sep-07 23:33N 52°36' E 001°44'0 0.0
2014-Sep-07 22:33N 52°36' E 001°44'0 0.0
2014-Sep-07 21:33N 52°36' E 001°44'0 0.0
2014-Sep-07 20:33N 52°36' E 001°44'0 0.0
2014-Sep-07 19:33N 52°36' E 001°44'0 0.0
2014-Sep-07 18:33N 52°36' E 001°44'0 0.0
2014-Sep-07 17:33N 52°36' E 001°44'0 0.0
2014-Sep-07 16:33N 52°36' E 001°44'0 0.0
2014-Sep-07 15:33N 52°36' E 001°44'0 0.0
2014-Sep-07 14:33N 52°36' E 001°44'0 0.0
2014-Sep-07 13:33N 52°36' E 001°44'0 0.0
2014-Sep-07 12:33N 52°36' E 001°44'0 0.0
2014-Sep-07 11:30N 52°36' E 001°44'0 0.0
2014-Sep-07 10:33N 52°36' E 001°44'0 0.0
2014-Sep-07 09:33N 52°36' E 001°44'2 2.0
2014-Sep-07 08:33N 52°34' E 001°45'0 0.4
2014-Sep-07 07:33N 52°34' E 001°45'0 0.0
2014-Sep-07 06:33N 52°34' E 001°45'0 0.0
2014-Sep-07 05:33N 52°34' E 001°45'0 0.0
2014-Sep-07 04:33N 52°34' E 001°45'0 0.0
2014-Sep-07 03:33N 52°34' E 001°45'0 0.0
2014-Sep-07 02:33N 52°34' E 001°45'0 0.0
2014-Sep-07 01:33N 52°34' E 001°45'0 0.0
2014-Sep-07 00:33N 52°34' E 001°45'0 0.0
2014-Sep-06 23:33N 52°34' E 001°45'0 0.0
2014-Sep-06 22:33N 52°34' E 001°45'0 0.0
2014-Sep-06 21:33N 52°34' E 001°45'0 0.0
2014-Sep-06 20:33N 52°34' E 001°45'0 0.0
2014-Sep-06 19:33N 52°34' E 001°45'0 0.0
2014-Sep-06 18:33N 52°34' E 001°45'0 0.0
2014-Sep-06 17:33N 52°34' E 001°45'0 0.0
2014-Sep-06 16:32N 52°34' E 001°45'2 2.1
2014-Sep-06 15:33N 52°36' E 001°45'1 1.1
2014-Sep-06 14:16N 52°36' E 001°43'15 3.6
2014-Sep-06 10:13N 52°50' E 001°39'048.1
2014-Sep-06 10:13N 52°50' E 001°38'2 2.8
2014-Sep-06 09:33N 52°52' E 001°37'2 2.5
2014-Sep-06 08:32N 52°54' E 001°35'58 3.0
2014-Sep-05 13:21N 53°43' E 000°45'10 2.6
2014-Sep-05 09:27N 53°53' E 000°48'34 2.4
2014-Sep-04 19:24N 54°14' E 000°01'1 1.5
2014-Sep-04 18:33N 54°15' W 000°00'1 0.9
2014-Sep-04 17:33N 54°15' W 000°01'2 2.0
2014-Sep-04 16:33N 54°17' W 000°03'9 1.9
2014-Sep-04 12:00N 54°24' W 000°12'16 3.8 090 / 71022.0 15.513.9
2014-Sep-04 07:47N 54°40' W 000°16'8 1.0
2014-Sep-03 23:32N 54°39' W 000°30'6 5.8
2014-Sep-03 22:33N 54°37' W 000°39'3 3.2
2014-Sep-03 21:33N 54°37' W 000°45'4 4.5
2014-Sep-03 20:34N 54°41' W 000°42'51 4.6
2014-Sep-03 09:38N 55°08' E 000°32'30 1.2
2014-Sep-02 08:57N 55°25' E 001°15'115 8.6
2014-Sep-01 19:33N 55°52' W 002°03'  
Track history (hours):
 
Tides and Currents Weather Stations Pressure Air Temp Water Temp Dewpoint Dewpoint Depression Visibility Wind Speed Wind Dir Waves Ship Positions

Tres Hombres

Ship's website: http://www.zeilendehandelsvaart.nl/

Last reported at 2014-Sep-10 13:48 UTC. Time now 2014-Sep-18 11:47 UTC.
Position N 52°57' E 004°46'.

Length 32 m.

Type: Sailing vessel. MMSI: 667905000.

Date/timePositionNaut miles runAvg speedWind from/ knotsBaromVisibWave heightAir tempDewpointWater temp
2014-Sep-10 13:48N 52°57' E 004°46'3 0.7
2014-Sep-10 10:00N 52°58' E 004°50'11 0.8
2014-Sep-09 20:56N 52°53' E 004°34'16 3.7
2014-Sep-09 16:33N 52°47' E 004°09'86 3.9
2014-Sep-08 18:25N 52°31' E 001°50'3 3.4
2014-Sep-08 17:33N 52°33' E 001°47'2 2.5
2014-Sep-08 16:33N 52°35' E 001°44'1 1.5
2014-Sep-08 15:33N 52°36' E 001°44'0 0.0
2014-Sep-08 14:33N 52°36' E 001°44'0 0.0
2014-Sep-08 13:33N 52°36' E 001°44'0 0.0
2014-Sep-08 12:33N 52°36' E 001°44'0 0.0
2014-Sep-08 11:33N 52°36' E 001°44'0 0.0
2014-Sep-08 10:33N 52°36' E 001°44'0 0.0
2014-Sep-08 09:33N 52°36' E 001°44'0 0.0
2014-Sep-08 08:33N 52°36' E 001°44'0 0.0
2014-Sep-08 07:33N 52°36' E 001°44'0 0.0
2014-Sep-08 06:33N 52°36' E 001°44'0 0.0
2014-Sep-08 05:33N 52°36' E 001°44'0 0.0
2014-Sep-08 04:33N 52°36' E 001°44'0 0.0
2014-Sep-08 03:33N 52°36' E 001°44'0 0.0
2014-Sep-08 02:33N 52°36' E 001°44'0 0.0
2014-Sep-08 01:33N 52°36' E 001°44'0 0.0
2014-Sep-08 00:33N 52°36' E 001°44'0 0.0
2014-Sep-07 23:33N 52°36' E 001°44'0 0.0
2014-Sep-07 22:33N 52°36' E 001°44'0 0.0
2014-Sep-07 21:33N 52°36' E 001°44'0 0.0
2014-Sep-07 20:33N 52°36' E 001°44'0 0.0
2014-Sep-07 19:33N 52°36' E 001°44'0 0.0
2014-Sep-07 18:33N 52°36' E 001°44'0 0.0
2014-Sep-07 17:33N 52°36' E 001°44'0 0.0
2014-Sep-07 16:33N 52°36' E 001°44'0 0.0
2014-Sep-07 15:33N 52°36' E 001°44'0 0.0
2014-Sep-07 14:33N 52°36' E 001°44'0 0.0
2014-Sep-07 13:33N 52°36' E 001°44'0 0.0
2014-Sep-07 12:33N 52°36' E 001°44'0 0.0
2014-Sep-07 11:30N 52°36' E 001°44'0 0.0
2014-Sep-07 10:33N 52°36' E 001°44'0 0.0
2014-Sep-07 09:33N 52°36' E 001°44'2 2.0
2014-Sep-07 08:33N 52°34' E 001°45'0 0.4
2014-Sep-07 07:33N 52°34' E 001°45'0 0.0
2014-Sep-07 06:33N 52°34' E 001°45'0 0.0
2014-Sep-07 05:33N 52°34' E 001°45'0 0.0
2014-Sep-07 04:33N 52°34' E 001°45'0 0.0
2014-Sep-07 03:33N 52°34' E 001°45'0 0.0
2014-Sep-07 02:33N 52°34' E 001°45'0 0.0
2014-Sep-07 01:33N 52°34' E 001°45'0 0.0
2014-Sep-07 00:33N 52°34' E 001°45'0 0.0
2014-Sep-06 23:33N 52°34' E 001°45'0 0.0
2014-Sep-06 22:33N 52°34' E 001°45'0 0.0
2014-Sep-06 21:33N 52°34' E 001°45'0 0.0
2014-Sep-06 20:33N 52°34' E 001°45'0 0.0
2014-Sep-06 19:33N 52°34' E 001°45'0 0.0
2014-Sep-06 18:33N 52°34' E 001°45'0 0.0
2014-Sep-06 17:33N 52°34' E 001°45'0 0.0
2014-Sep-06 16:32N 52°34' E 001°45'2 2.1
2014-Sep-06 15:33N 52°36' E 001°45'1 1.1
2014-Sep-06 14:16N 52°36' E 001°43'15 3.6
2014-Sep-06 10:13N 52°50' E 001°39'048.1
2014-Sep-06 10:13N 52°50' E 001°38'2 2.8
2014-Sep-06 09:33N 52°52' E 001°37'2 2.5
2014-Sep-06 08:32N 52°54' E 001°35'58 3.0
2014-Sep-05 13:21N 53°43' E 000°45'10 2.6
2014-Sep-05 09:27N 53°53' E 000°48'34 2.4
2014-Sep-04 19:24N 54°14' E 000°01'1 1.5
2014-Sep-04 18:33N 54°15' W 000°00'1 0.9
2014-Sep-04 17:33N 54°15' W 000°01'2 2.0
2014-Sep-04 16:33N 54°17' W 000°03'9 1.9
2014-Sep-04 12:00N 54°24' W 000°12'16 3.8 090 / 71022.0 15.513.9
2014-Sep-04 07:47N 54°40' W 000°16'8 1.0
2014-Sep-03 23:32N 54°39' W 000°30'6 5.8
2014-Sep-03 22:33N 54°37' W 000°39'3 3.2
2014-Sep-03 21:33N 54°37' W 000°45'4 4.5
2014-Sep-03 20:34N 54°41' W 000°42'51 4.6
2014-Sep-03 09:38N 55°08' E 000°32'30 1.2
2014-Sep-02 08:57N 55°25' E 001°15'115 8.6
2014-Sep-01 19:33N 55°52' W 002°03'  

Dump ship's entire track history